Date,TemperatureHighF,TemperatureAvgF,TemperatureLowF,DewpointHighF,DewpointAvgF,DewpointLowF,HumidityHigh,HumidityAvg,HumidityLow,PressureMaxIn,PressureMinIn,WindSpeedMaxMPH,WindSpeedAvgMPH,GustSpeedMaxMPH,PrecipitationSumIn
2013-1-1,27.0,21.2,11.9,22.8,13.7,5.7,84,73,59,29.92,29.78,7,1,7,0.00
2013-1-2,27.4,20.7,11.9,19.1,14.8,6.8,83,78,70,29.95,29.82,8,1,8,0.00
2013-1-3,28.4,23.1,15.1,24.5,17.7,9.8,85,80,74,29.91,29.80,12,3,12,0.00
2013-1-4,30.1,26.4,20.9,23.5,20.2,16.2,84,77,69,29.93,29.77,17,6,17,0.00
2013-1-5,32.4,25.6,15.7,28.4,21.2,12.2,89,83,76,30.04,29.78,10,3,10,0.00
2013-1-6,36.7,33.0,31.3,32.9,29.0,25.6,89,85,79,30.02,29.67,11,3,11,0.01
2013-1-7,34.7,30.2,26.3,26.6,24.1,21.5,84,78,71,30.13,29.91,15,3,15,0.00
2013-1-8,38.5,27.7,19.8,30.2,22.7,16.5,88,81,71,30.00,29.91,8,1,8,0.01
2013-1-9,44.5,35.7,24.1,34.1,27.4,21.0,89,73,49,30.19,29.79,19,5,19,0.00
2013-1-10,43.7,33.0,24.3,33.8,26.6,20.2,86,78,64,30.33,29.95,6,1,6,0.04
2013-1-11,53.6,42.4,34.4,50.8,39.6,30.7,94,90,85,29.95,29.54,10,2,10,0.41
2013-1-12,57.6,49.0,43.0,51.0,45.7,41.1,94,88,78,29.72,29.61,8,2,8,0.00
2013-1-13,48.6,37.9,29.7,46.7,35.7,27.2,94,92,85,29.80,29.49,12,3,12,0.76
2013-1-14,29.7,24.2,17.3,27.2,18.6,13.0,90,79,71,30.18,29.80,16,3,16,0.00
2013-1-15,31.1,21.5,13.3,23.8,16.5,9.6,88,81,71,30.18,29.90,4,0,4,0.00
2013-1-16,36.5,28.1,19.6,26.5,20.0,15.5,87,73,50,29.90,29.56,14,4,14,0.00
2013-1-17,35.3,29.2,17.6,27.9,20.3,5.4,82,70,55,30.05,29.70,14,4,14,0.00
2013-1-18,32.8,23.7,12.4,22.9,15.2,5.9,80,70,59,30.17,29.73,19,3,19,0.00
2013-1-19,47.2,39.0,31.7,34.5,29.4,22.7,74,68,58,29.73,29.33,16,5,19,0.00
2013-1-20,42.5,22.6,15.7,33.9,10.7,4.2,72,60,48,29.92,29.32,28,8,28,0.00
2013-1-21,18.5,13.2,3.4,11.7,4.7,-5.1,81,68,54,29.89,29.69,14,3,14,0.00
2013-1-22,11.2,4.6,-2.0,0.4,-4.2,-10.8,76,67,56,30.01,29.84,15,3,15,0.00
2013-1-23,19.1,11.2,1.8,11.4,4.2,-4.4,80,73,68,30.01,29.81,10,2,10,0.00
2013-1-24,18.5,12.5,7.6,9.0,4.3,-1.6,83,70,51,30.31,29.85,9,2,9,0.00
2013-1-25,25.9,18.4,13.1,17.9,11.4,4.2,82,74,67,30.23,29.76,7,1,7,0.00
2013-1-26,27.7,21.5,16.2,18.1,14.2,9.1,85,74,57,30.19,29.79,7,1,7,0.00
2013-1-27,32.8,22.8,12.1,25.8,16.3,7.3,88,76,62,30.21,29.88,12,2,12,0.00
2013-1-28,43.6,36.2,29.2,41.4,33.6,25.7,93,90,86,29.90,29.61,9,2,9,0.17
2013-1-29,54.4,44.0,34.6,52.9,42.2,32.1,95,93,91,29.78,29.25,10,3,10,0.24
2013-1-30,57.6,48.8,32.2,55.9,46.9,28.5,95,93,86,29.26,28.91,20,4,20,0.17
2013-1-31,32.2,22.8,15.5,28.8,16.2,10.5,87,76,66,29.62,29.01,21,8,21,0.00
2013-2-1,21.4,14.8,9.0,12.1,8.2,1.8,84,75,62,30.00,29.62,18,5,18,0.00
2013-2-2,26.6,16.9,8.6,20.4,11.6,3.5,83,79,76,29.95,29.68,11,2,11,0.00
2013-2-3,26.6,14.3,2.7,18.6,8.5,-1.6,84,78,69,29.74,29.58,12,2,12,0.00
2013-2-4,28.8,19.8,15.5,21.7,14.2,8.6,83,79,72,29.75,29.61,5,1,5,0.00
2013-2-5,31.0,23.2,13.7,24.0,17.8,9.7,88,80,66,29.68,29.54,9,2,9,0.00
2013-2-6,31.0,23.1,13.7,22.6,16.5,9.7,86,76,62,30.03,29.67,8,1,8,0.00
2013-2-7,41.4,30.4,23.8,31.2,23.1,17.7,85,74,63,30.01,29.61,9,2,9,0.03
2013-2-8,28.4,25.4,18.4,26.2,21.8,14.0,91,86,79,30.05,29.51,12,4,12,0.00
2013-2-9,30.6,18.7,8.6,23.4,14.0,5.3,88,82,69,30.14,29.88,8,1,8,0.00
2013-2-10,42.3,37.2,34.0,33.4,30.3,27.4,87,76,66,29.80,29.48,7,3,7,0.07
2013-2-11,42.8,36.5,31.3,40.7,30.6,25.2,92,79,69,29.64,29.34,21,8,21,0.06
2013-2-12,34.6,30.7,27.9,25.7,23.5,21.0,81,75,68,29.82,29.64,18,5,18,0.01
2013-2-13,38.2,30.4,25.9,27.6,23.2,20.3,83,75,63,29.70,29.51,8,2,8,0.00
2013-2-14,38.9,33.0,25.0,34.5,28.6,21.2,89,84,77,29.61,29.46,21,4,21,0.00
2013-2-15,33.5,27.7,23.2,27.6,17.9,13.1,80,67,53,29.87,29.60,14,3,14,0.00
2013-2-16,30.2,21.1,13.3,20.7,14.0,8.6,83,74,62,29.87,29.73,12,1,12,0.00
2013-2-17,23.4,15.1,8.5,11.4,6.8,3.1,85,70,54,29.96,29.80,10,2,10,0.00
2013-2-18,42.1,29.3,11.0,33.8,20.9,4.0,79,71,60,29.96,29.39,11,3,11,0.00
2013-2-19,42.3,29.2,18.0,38.3,23.4,10.4,90,79,70,29.69,29.20,20,8,20,0.01
2013-2-20,22.9,19.5,15.5,14.8,11.4,8.4,78,71,61,29.99,29.68,19,6,19,0.00
2013-2-21,25.7,21.2,19.1,16.9,13.9,12.8,82,73,64,30.14,29.98,10,3,10,0.00
2013-2-22,32.4,27.3,21.6,30.3,23.7,16.7,92,86,81,30.03,29.66,10,2,10,0.00
2013-2-23,37.6,30.9,24.8,29.5,24.3,18.5,90,77,63,29.69,29.64,11,3,11,0.00
2013-2-24,38.2,28.6,21.8,28.7,21.8,16.3,85,76,63,29.92,29.66,10,3,10,0.00
2013-2-25,41.2,30.7,17.8,29.6,22.6,13.7,87,72,58,29.99,29.87,5,1,5,0.00
2013-2-26,36.4,31.2,25.7,30.6,25.9,18.8,93,81,67,29.90,29.30,14,4,14,0.03
2013-2-27,37.1,33.7,32.2,35.2,31.9,30.4,94,93,92,29.36,29.23,5,1,5,0.03
2013-2-28,36.9,32.7,29.0,32.8,29.3,24.1,94,87,79,29.73,29.32,12,3,12,0.17
2013-3-1,28.8,25.9,23.9,24.3,20.8,18.7,84,81,78,29.87,29.72,10,3,10,0.00
2013-3-2,27.0,24.4,22.7,21.2,19.0,16.9,83,79,74,29.84,29.81,8,2,8,0.00
2013-3-3,30.6,21.4,16.6,19.1,15.2,12.0,82,77,62,29.82,29.75,7,2,7,0.00
2013-3-4,34.0,22.2,12.1,21.3,14.3,7.7,84,72,54,29.91,29.81,6,1,6,0.00
2013-3-5,34.9,27.0,18.0,24.7,19.8,11.4,85,75,64,29.90,29.61,0,0,0,0.00
2013-3-6,43.2,32.7,25.6,33.8,26.7,20.8,86,79,66,29.97,29.62,0,0,0,0.05
2013-3-7,37.3,33.3,24.7,30.5,26.9,17.8,88,78,65,30.16,29.96,0,0,0,0.02
2013-3-8,43.6,31.4,20.5,30.4,22.9,15.6,82,71,57,30.26,30.16,0,0,0,0.01
2013-3-9,45.4,36.2,23.4,34.6,28.4,19.5,87,74,60,30.19,29.76,0,0,0,0.01
2013-3-10,61.6,48.3,34.2,47.8,38.0,28.6,81,68,54,29.76,29.53,0,0,0,0.00
2013-3-11,52.9,48.1,37.1,46.2,42.2,31.5,90,80,65,29.55,29.21,0,0,0,0.02
2013-3-12,38.9,34.3,27.9,32.3,28.8,23.4,85,80,73,29.63,29.41,0,0,0,0.02
2013-3-13,32.2,28.6,24.8,26.5,20.6,14.3,87,72,56,29.88,29.56,0,0,0,0.00
2013-3-14,39.2,29.5,20.2,22.9,17.6,13.2,77,62,46,29.96,29.79,0,0,0,0.00
2013-3-15,40.0,34.0,29.2,32.9,27.2,19.0,88,76,62,29.79,29.56,0,0,0,0.03
2013-3-16,33.8,28.9,23.8,30.3,24.6,17.8,90,84,73,29.74,29.48,0,0,0,0.01
2013-3-17,31.3,25.9,20.2,22.6,16.4,12.1,82,68,54,29.97,29.73,0,0,0,0.00
2013-3-18,34.2,29.0,20.3,31.9,24.9,13.3,92,84,74,29.90,29.27,0,0,0,0.01
2013-3-19,33.7,27.3,23.0,30.4,20.2,16.7,88,75,62,29.64,29.32,0,0,0,0.00
2013-3-20,31.1,24.5,16.9,20.3,15.0,9.5,73,67,58,29.64,29.59,0,0,0,0.00
2013-3-21,33.3,24.0,14.6,25.5,17.4,8.6,84,76,65,29.63,29.55,0,0,0,0.00
2013-3-22,38.5,30.9,25.0,24.9,20.4,16.7,74,65,53,29.73,29.63,0,0,0,0.00
2013-3-23,39.4,30.4,21.6,27.4,21.9,16.9,84,71,57,29.81,29.72,0,0,0,0.00
2013-3-24,66.7,29.4,22.9,42.9,21.2,17.3,85,72,42,29.79,29.58,19,3,19,0.02
2013-3-25,38.7,33.8,30.2,27.6,24.5,22.0,77,69,59,29.86,29.51,19,5,19,0.00
2013-3-26,42.3,36.0,32.1,30.7,27.6,25.5,83,72,53,30.05,29.85,15,3,15,0.00
2013-3-27,45.2,37.5,29.0,29.5,25.0,21.9,83,62,41,30.14,30.05,20,4,20,0.00
2013-3-28,50.7,39.9,30.0,26.0,23.7,19.7,77,54,33,30.20,30.14,15,3,15,0.00
2013-3-29,52.6,40.8,29.8,24.8,21.0,17.8,69,47,27,30.23,30.13,10,2,11,0.00
2013-3-30,54.7,43.2,29.9,28.2,21.9,14.5,71,46,22,30.16,29.87,15,2,15,0.00
2013-3-31,56.9,45.2,36.2,41.5,33.5,27.3,87,65,37,29.87,29.55,23,3,23,0.02
2013-4-1,42.4,31.5,26.1,32.5,16.3,9.5,83,54,34,30.04,29.61,21,5,22,0.00
2013-4-2,40.2,30.5,22.4,18.7,13.3,9.4,83,51,30,30.20,30.04,22,4,22,0.00
2013-4-3,40.9,31.5,23.6,19.5,12.6,7.7,68,47,28,30.39,30.20,16,2,17,0.00
2013-4-4,55.0,40.2,25.8,20.7,15.9,11.7,73,41,19,30.32,29.89,15,3,16,0.00
2013-4-5,45.9,40.6,31.2,30.4,20.5,14.5,79,47,29,30.15,29.88,13,2,14,0.00
2013-4-6,49.7,38.5,28.0,25.7,20.6,13.8,78,51,31,30.20,29.74,16,3,17,0.00
2013-4-7,57.4,49.7,38.7,44.9,35.4,24.3,76,59,36,29.96,29.55,28,6,30,0.00
2013-4-8,64.5,45.0,33.8,55.3,39.5,29.9,93,81,55,29.98,29.64,25,3,25,0.13
2013-4-9,49.7,45.3,40.3,45.2,42.1,38.5,94,89,77,30.03,29.82,12,2,16,0.01
2013-4-10,45.7,41.1,37.5,43.7,39.8,36.3,97,95,91,29.96,29.77,14,3,15,0.38
2013-4-11,38.7,36.6,35.2,37.3,35.4,33.7,97,95,93,29.93,29.58,21,5,21,1.10
2013-4-12,40.7,37.8,34.5,39.6,35.1,32.4,97,90,76,29.71,29.46,20,3,20,0.34
2013-4-13,41.2,37.8,34.3,37.3,30.6,26.4,92,75,58,29.93,29.71,21,5,21,0.03
2013-4-14,46.7,38.5,32.6,37.7,31.8,26.8,88,77,68,30.07,29.89,9,1,9,0.01
2013-4-15,68.1,53.5,37.0,55.1,44.6,33.4,90,73,54,29.92,29.81,21,3,21,0.04
2013-4-16,61.7,53.6,47.2,53.7,42.8,33.0,95,70,40,30.15,29.79,13,3,16,0.03
2013-4-17,56.8,46.7,39.1,43.0,35.0,29.8,94,65,42,30.27,29.96,11,4,12,0.76
2013-4-18,77.8,57.6,42.8,64.9,53.9,40.9,96,88,61,29.98,29.49,32,5,32,0.47
2013-4-19,57.9,44.7,35.3,56.9,39.2,28.1,98,81,62,29.67,29.23,29,7,30,0.39
2013-4-20,38.2,33.5,29.0,30.6,21.8,15.6,93,63,45,30.40,29.67,23,5,24,0.00
2013-4-21,47.2,36.3,23.9,28.8,24.0,18.9,95,63,42,30.58,30.40,13,2,13,0.00
2013-4-22,60.7,46.5,30.1,35.2,28.2,18.1,94,55,20,30.43,30.13,12,1,12,0.00
2013-4-23,69.6,54.8,41.1,53.3,41.1,32.3,96,63,37,30.14,29.73,23,3,25,0.15
2013-4-24,54.3,39.8,33.7,53.4,37.0,27.4,97,90,70,30.07,29.65,17,3,17,0.56
2013-4-25,50.1,40.8,32.5,40.0,31.0,26.4,90,69,41,30.29,30.05,18,4,18,0.04
2013-4-26,58.1,46.4,30.6,37.6,31.9,26.9,89,59,38,30.41,30.27,14,2,14,0.00
2013-4-27,68.3,54.1,37.6,41.3,35.8,28.4,94,56,24,30.31,30.04,13,2,13,0.00
2013-4-28,54.8,51.9,47.5,52.9,45.2,32.3,98,80,48,30.04,29.76,8,1,8,0.34
2013-4-29,69.3,59.0,52.4,55.0,52.8,51.1,99,82,55,29.87,29.76,8,1,8,0.01
2013-4-30,70.7,60.9,52.5,57.7,54.1,51.1,96,79,58,30.01,29.85,17,3,18,0.08
2013-5-1,79.5,66.4,51.3,58.7,53.9,49.9,97,68,41,30.15,29.99,13,2,13,0.00
2013-5-2,77.5,66.2,53.6,56.9,49.7,44.3,81,57,39,30.16,30.04,10,2,15,0.00
2013-5-3,77.5,66.3,55.4,55.3,43.2,30.1,60,45,20,30.05,29.97,12,2,12,0.00
2013-5-4,69.5,61.9,54.3,47.5,42.0,36.1,72,50,32,30.04,29.97,13,2,13,0.00
2013-5-5,71.1,62.0,51.4,45.1,38.7,29.6,73,45,23,30.03,29.93,12,2,12,0.00
2013-5-6,72.7,61.5,49.5,49.7,42.3,36.8,67,50,38,29.99,29.90,11,2,11,0.00
2013-5-7,74.5,63.8,50.6,53.8,46.0,36.6,67,53,36,29.98,29.90,13,1,13,0.00
2013-5-8,80.0,65.5,55.7,55.5,48.6,42.4,83,56,33,29.93,29.84,12,1,12,0.00
2013-5-9,80.0,67.3,51.6,55.7,49.8,41.1,93,58,27,29.88,29.80,11,1,11,0.00
2013-5-10,69.4,57.2,41.5,61.2,52.0,38.2,97,83,53,29.82,29.65,16,2,16,0.29
2013-5-11,60.1,46.8,38.5,46.2,40.6,32.4,94,80,52,29.83,29.66,22,3,22,0.00
2013-5-12,47.4,40.2,33.4,33.6,29.4,23.7,88,66,47,30.03,29.80,22,4,22,0.00
2013-5-13,53.0,41.9,29.9,31.4,25.3,21.2,81,55,30,30.12,30.03,13,1,13,0.00
2013-5-14,76.2,56.0,41.7,51.0,39.8,30.0,85,56,37,30.06,29.66,16,2,16,0.00
2013-5-15,80.3,69.1,51.5,59.2,49.9,44.7,94,55,30,29.69,29.51,19,3,23,0.01
2013-5-16,80.0,67.7,53.6,51.2,44.8,37.5,70,46,27,29.93,29.69,13,2,13,0.00
2013-5-17,72.0,60.2,48.4,47.2,42.4,38.1,73,53,36,30.07,29.93,9,1,9,0.00
2013-5-18,79.1,66.1,55.0,49.0,45.0,41.0,67,48,31,30.07,29.94,9,1,9,0.00
2013-5-19,84.3,70.5,53.7,64.4,56.1,44.6,79,61,46,29.96,29.78,8,1,8,0.00
2013-5-20,88.8,75.2,60.1,71.5,64.2,58.3,95,71,41,29.84,29.67,18,2,19,0.00
2013-5-21,82.8,75.6,65.8,67.8,62.9,58.6,91,66,45,29.72,29.60,21,3,21,0.02
2013-5-22,79.9,68.9,61.9,65.4,62.4,58.6,95,81,50,29.64,29.52,23,3,23,0.20
2013-5-23,63.0,52.4,41.7,60.5,50.3,38.4,97,92,84,30.07,29.58,21,3,21,0.19
2013-5-24,53.7,45.1,37.8,39.5,35.8,32.3,94,71,48,30.30,30.07,15,2,15,0.00
2013-5-25,63.7,50.4,34.1,40.4,35.7,31.2,95,61,35,30.35,30.22,11,1,11,0.00
2013-5-26,68.1,54.9,38.6,40.5,35.7,30.4,92,53,27,30.28,30.16,10,1,10,0.00
2013-5-27,62.2,50.8,40.9,49.8,42.0,33.0,97,74,37,30.20,29.95,9,1,9,0.51
2013-5-28,73.6,61.0,50.3,69.5,59.3,49.5,98,94,81,29.95,29.73,15,1,15,0.21
2013-5-29,81.7,73.6,65.9,67.1,64.7,60.6,92,75,51,29.89,29.68,16,3,17,0.00
2013-5-30,86.0,73.7,66.2,75.3,66.6,61.3,94,79,55,29.96,29.86,20,2,20,0.11
2013-5-31,80.5,71.4,66.1,69.5,66.9,64.4,98,86,65,29.90,29.75,16,3,17,0.21
2013-6-1,78.8,69.9,62.9,67.9,64.2,62.1,98,83,61,29.75,29.59,19,3,19,0.21
2013-6-2,70.2,64.1,52.5,63.9,56.4,43.8,91,77,62,29.89,29.55,16,3,16,0.00
2013-6-3,65.5,55.3,40.7,46.3,40.9,35.4,92,61,39,30.01,29.89,12,1,12,0.00
2013-6-4,71.5,59.5,46.3,49.0,43.2,30.6,92,58,38,30.13,30.01,7,1,7,0.00
2013-6-5,72.6,61.7,48.6,48.7,42.1,31.2,70,50,32,30.11,29.91,8,1,8,0.00
2013-6-6,65.7,59.6,55.7,54.6,48.3,41.8,78,66,58,29.92,29.78,13,2,13,0.00
2013-6-7,60.7,55.6,50.1,53.7,50.9,48.2,95,84,76,29.84,29.78,9,1,9,0.00
2013-6-8,71.8,62.2,55.6,54.7,52.1,50.0,85,71,49,30.00,29.83,5,0,6,0.00
2013-6-9,76.7,66.2,55.2,61.1,55.0,51.2,91,68,52,30.04,29.87,11,1,11,0.00
2013-6-10,71.1,64.7,59.1,68.4,62.6,52.8,98,94,64,29.88,29.64,5,0,5,1.45
2013-6-11,79.6,70.8,63.1,66.4,64.1,62.1,98,81,58,29.80,29.67,10,1,10,0.00
2013-6-12,75.0,69.5,62.5,68.6,64.7,60.1,96,85,76,29.83,29.54,7,0,8,0.79
2013-6-13,75.7,68.0,60.1,63.7,58.8,54.1,98,75,49,29.83,29.45,17,2,17,1.03
2013-6-14,75.3,66.1,57.7,57.8,53.8,47.6,87,66,43,29.99,29.83,15,2,15,0.00
2013-6-15,77.8,67.0,57.3,62.8,58.3,52.8,91,75,51,30.00,29.83,12,2,12,0.00
2013-6-16,79.9,70.4,63.8,65.9,61.2,50.4,97,75,37,29.84,29.67,12,3,12,0.34
2013-6-17,84.5,72.6,62.4,63.7,57.9,53.9,82,62,37,29.83,29.72,11,2,11,0.00
2013-6-18,70.3,62.8,54.3,59.1,51.5,41.7,96,69,43,30.00,29.78,15,2,15,0.08
2013-6-19,75.3,63.0,50.0,54.6,47.5,38.9,81,58,38,30.10,29.99,6,1,6,0.00
2013-6-20,80.3,67.0,51.3,58.1,53.3,49.3,95,65,38,30.14,30.05,9,1,10,0.00
2013-6-21,86.3,72.1,57.1,66.9,59.4,52.2,87,66,43,30.12,29.95,12,1,12,0.00
2013-6-22,85.8,75.6,67.0,74.1,66.8,59.2,90,74,63,30.00,29.88,12,2,12,0.04
2013-6-23,87.8,78.8,68.4,70.1,67.8,65.6,93,71,51,29.96,29.86,15,3,15,0.00
2013-6-24,85.6,76.4,66.4,72.5,67.7,63.3,93,75,56,29.95,29.81,13,2,14,0.00
2013-6-25,83.0,73.3,66.8,72.6,67.9,63.4,96,84,66,29.88,29.72,13,2,14,0.36
2013-6-26,84.0,73.7,65.4,71.9,67.8,64.5,98,83,62,29.79,29.64,11,1,11,0.11
2013-6-27,85.0,72.0,65.1,73.1,68.3,63.4,98,89,60,29.66,29.52,12,1,14,1.26
2013-6-28,75.7,66.6,63.1,68.1,64.3,60.4,99,93,69,29.54,29.42,10,1,10,0.43
2013-6-29,75.5,67.0,62.1,64.7,61.6,56.6,98,84,62,29.64,29.45,12,2,12,0.01
2013-6-30,77.5,68.6,60.5,62.2,58.1,45.5,92,70,49,29.85,29.64,16,2,16,0.00
2013-7-1,66.6,62.5,58.8,60.0,55.0,46.3,94,77,55,29.98,29.85,12,2,12,0.29
2013-7-2,73.8,65.9,58.8,64.1,59.6,54.1,90,80,68,29.99,29.93,12,1,12,0.00
2013-7-3,81.5,70.4,59.3,69.5,63.7,57.4,97,81,57,30.01,29.95,10,1,11,0.00
2013-7-4,78.7,73.4,68.5,68.5,65.7,62.5,95,78,61,30.03,29.97,9,1,9,0.00
2013-7-5,84.2,74.7,68.9,70.1,65.8,59.5,97,76,44,30.01,29.94,8,1,8,0.00
2013-7-6,84.1,74.6,67.7,71.5,68.6,65.7,97,83,61,30.01,29.89,7,1,8,0.06
2013-7-7,81.4,73.9,69.5,70.5,68.6,64.9,97,84,60,29.93,29.85,9,2,9,0.00
2013-7-8,82.3,72.8,67.5,74.9,69.4,64.8,97,89,76,29.94,29.86,14,1,15,0.35
2013-7-9,87.0,75.9,70.8,73.5,70.9,69.4,99,86,59,29.89,29.77,16,1,16,0.02
2013-7-10,87.6,77.1,65.4,75.4,69.6,57.7,99,79,55,29.84,29.66,18,2,19,0.21
2013-7-11,76.5,68.5,58.7,59.4,56.4,53.3,89,66,47,29.97,29.84,12,2,13,0.00
2013-7-12,81.3,69.2,55.3,63.7,58.5,53.9,97,71,46,30.07,29.97,6,1,6,0.00
2013-7-13,85.5,73.4,61.6,65.8,61.2,53.8,92,68,38,30.12,30.04,6,0,6,0.00
2013-7-14,90.2,77.9,64.7,72.4,68.1,62.4,97,74,49,30.16,30.11,6,0,6,0.00
2013-7-15,92.5,79.0,69.9,77.7,72.7,67.8,98,83,57,30.19,30.11,7,0,7,0.89
2013-7-16,89.0,81.0,73.7,78.8,75.6,72.9,98,84,66,30.20,30.13,7,1,8,0.01
2013-7-17,93.2,82.9,74.6,78.3,75.0,71.7,91,78,58,30.17,30.04,9,1,9,0.00
2013-7-18,91.4,83.1,74.2,77.3,73.8,69.1,92,74,52,30.05,29.84,10,2,11,0.00
2013-7-19,91.6,83.3,76.3,75.8,73.4,64.7,92,73,49,29.86,29.60,16,4,16,0.07
2013-7-20,84.3,76.6,68.5,74.6,65.1,57.2,97,70,43,29.82,29.61,14,1,14,0.17
2013-7-21,81.4,72.7,62.6,65.6,60.6,53.6,88,67,48,29.90,29.80,6,1,6,0.00
2013-7-22,80.0,73.7,66.7,70.3,65.0,62.3,89,75,57,29.86,29.66,8,0,8,0.00
2013-7-23,81.0,69.9,59.9,73.3,65.0,51.6,97,85,66,29.77,29.57,15,2,15,0.53
2013-7-24,70.0,63.0,56.5,54.6,51.3,48.2,82,66,52,29.96,29.77,15,2,15,0.00
2013-7-25,76.5,64.7,49.9,58.2,53.0,48.6,97,69,43,30.03,29.96,7,1,7,0.00
2013-7-26,77.8,68.3,57.9,61.3,57.6,53.9,88,70,50,30.02,29.81,11,1,13,0.00
2013-7-27,73.4,64.7,55.2,67.4,61.7,51.4,96,90,74,29.82,29.63,11,1,11,0.33
2013-7-28,64.5,57.1,50.4,54.4,51.8,48.5,95,83,65,29.90,29.74,15,2,15,0.01
2013-7-29,67.7,60.8,55.6,57.0,54.5,51.8,89,80,66,30.10,29.89,8,2,8,0.00
2013-7-30,73.2,60.7,53.3,61.8,56.7,52.4,98,87,62,30.13,30.04,5,0,5,0.00
2013-7-31,76.0,67.3,61.8,67.3,64.0,59.9,97,90,68,30.04,29.78,8,0,8,0.33
2013-8-1,76.5,67.1,62.1,64.5,61.2,55.6,97,82,54,29.82,29.77,9,1,11,0.01
2013-8-2,74.0,65.0,56.8,64.1,59.1,53.6,94,82,61,29.84,29.75,18,2,18,0.00
2013-8-3,76.8,68.5,58.9,64.1,58.2,52.6,98,72,46,29.95,29.80,11,1,11,0.00
2013-8-4,71.6,62.9,53.9,57.1,53.9,50.8,95,73,54,30.07,29.96,13,1,13,0.00
2013-8-5,71.7,63.7,55.5,58.7,54.2,50.7,88,72,53,30.04,29.89,7,1,9,0.00
2013-8-6,76.8,68.3,62.0,67.3,63.2,58.0,97,84,67,29.89,29.80,12,1,12,0.06
2013-8-7,68.6,66.4,64.1,65.8,64.2,62.3,98,93,84,29.81,29.75,11,1,12,0.00
2013-8-8,70.2,67.5,64.7,62.3,60.8,59.5,83,79,71,29.89,29.86,7,1,8,0.00
2013-8-9,78.8,69.0,58.7,62.0,57.8,54.3,90,69,46,29.91,29.84,9,1,9,0.00
2013-8-10,75.8,68.3,60.5,62.2,59.0,55.0,94,73,53,30.04,29.91,9,1,9,0.00
2013-8-11,78.0,67.7,56.0,63.3,58.4,54.1,95,73,49,30.04,29.94,8,1,10,0.00
2013-8-12,69.6,66.0,62.6,67.5,63.4,60.1,98,92,78,29.96,29.76,8,1,9,0.95
2013-8-13,66.5,61.1,53.9,64.0,53.0,46.0,98,76,50,29.97,29.74,13,1,13,0.00
2013-8-14,69.0,58.8,48.6,53.7,49.4,45.6,92,73,48,30.09,29.96,11,1,11,0.00
2013-8-15,72.0,62.1,50.8,55.6,51.6,46.1,95,71,41,30.10,30.01,8,1,10,0.00
2013-8-16,76.8,66.2,54.7,59.4,55.1,52.4,93,69,45,30.12,30.03,8,1,8,0.00
2013-8-17,80.3,67.2,55.8,59.8,55.5,47.5,93,69,37,30.19,30.09,8,0,8,0.00
2013-8-18,82.4,68.7,57.6,65.5,58.6,55.5,98,73,43,30.13,30.02,4,0,7,0.00
2013-8-19,80.7,70.1,57.4,62.5,57.5,46.8,93,67,34,30.03,29.94,11,1,11,0.00
2013-8-20,83.7,74.1,64.5,67.0,63.3,58.5,87,70,50,30.05,29.97,9,1,10,0.00
2013-8-21,83.8,75.7,66.5,69.9,66.6,62.9,89,74,59,30.04,29.89,14,2,14,0.00
2013-8-22,82.5,74.5,69.4,69.1,67.3,65.7,92,79,59,29.94,29.84,7,1,7,0.00
2013-8-23,80.0,70.6,60.0,67.4,55.8,46.9,92,62,33,30.12,29.93,10,1,10,0.00
2013-8-24,81.3,68.3,57.1,65.0,58.3,55.1,98,73,43,30.22,30.11,7,0,7,0.00
2013-8-25,84.9,71.9,56.2,65.6,61.1,55.3,98,72,46,30.21,30.05,13,2,14,0.00
2013-8-26,86.8,77.4,68.6,73.9,67.6,61.6,91,72,60,30.06,29.86,12,3,12,0.01
2013-8-27,81.7,75.6,69.6,75.8,72.4,68.2,98,90,77,29.89,29.73,9,1,9,0.47
2013-8-28,80.8,75.7,69.7,74.5,72.1,67.9,98,89,71,29.90,29.67,22,2,22,0.17
2013-8-29,85.5,75.0,65.4,72.4,68.7,64.5,97,82,54,29.97,29.89,6,1,6,0.00
2013-8-30,85.3,75.5,65.5,72.1,68.8,64.9,99,81,58,29.90,29.63,15,2,15,0.21
2013-8-31,79.0,71.7,68.4,71.2,68.7,64.3,98,91,70,29.74,29.64,9,1,9,0.00
2013-9-1,80.0,71.4,66.2,72.0,67.5,64.0,97,88,73,29.75,29.62,5,0,6,0.03
2013-9-2,74.9,68.4,58.6,70.3,62.0,52.2,96,81,61,29.82,29.61,11,2,11,0.00
2013-9-3,72.6,63.0,56.7,57.2,54.2,51.6,88,74,54,29.93,29.81,11,1,11,0.00
2013-9-4,79.2,67.5,56.6,63.9,58.8,53.4,92,75,52,29.99,29.91,12,2,12,0.00
2013-9-5,69.4,61.9,51.5,62.7,51.9,46.1,94,72,46,30.18,29.97,8,1,11,0.00
2013-9-6,68.0,52.2,45.6,51.4,45.7,40.9,97,82,42,30.21,30.17,7,0,7,0.00
2013-9-7,79.2,73.2,68.8,70.5,67.2,65.4,94,82,63,29.90,29.80,7,1,9,0.07
2013-9-8,72.3,67.2,55.5,67.1,58.5,49.8,93,75,51,29.99,29.83,11,2,11,0.00
2013-9-9,73.4,63.2,52.1,69.3,60.3,49.9,96,90,77,29.98,29.82,6,0,6,0.07
2013-9-10,92.0,81.0,68.2,73.9,70.0,64.7,97,72,41,29.91,29.80,14,3,14,0.00
2013-9-11,88.4,76.3,68.2,73.5,68.5,65.8,97,78,58,29.91,29.83,10,2,11,0.31
2013-9-12,76.1,67.0,55.1,67.3,60.9,50.1,98,83,49,29.86,29.73,16,1,16,0.32
2013-9-13,59.9,53.1,42.7,50.5,44.5,38.6,91,73,54,30.06,29.86,14,2,20,0.00
2013-9-14,66.5,52.7,40.4,47.6,42.2,34.6,96,72,35,30.13,30.02,7,1,8,0.00
2013-9-15,61.8,55.3,50.3,54.5,50.1,45.7,97,83,64,30.06,29.99,8,0,9,0.07
2013-9-16,60.7,54.7,45.3,53.9,48.9,41.3,97,82,58,30.31,30.05,12,2,12,0.00
2013-9-17,67.3,52.2,39.1,52.3,44.9,38.0,98,78,51,30.34,30.16,6,0,6,0.00
2013-9-18,74.5,59.8,46.3,57.5,51.9,43.8,98,78,47,30.16,29.96,10,1,10,0.00
2013-9-19,78.5,67.3,57.8,69.4,63.4,56.6,98,88,70,29.97,29.83,10,1,10,0.00
2013-9-20,79.6,70.8,66.5,71.7,68.0,65.6,98,91,71,29.83,29.63,12,2,12,0.24
2013-9-21,66.7,61.4,53.7,65.6,55.4,44.3,98,82,54,29.78,29.57,14,1,14,0.03
2013-9-22,56.8,51.5,45.4,45.5,42.6,40.0,91,72,59,30.02,29.78,9,1,12,0.00
2013-9-23,59.9,49.7,40.3,46.1,42.7,38.4,97,78,56,30.13,30.02,7,0,7,0.00
2013-9-24,66.8,53.1,42.2,50.8,46.5,41.3,99,81,54,30.09,29.93,5,0,5,0.00
2013-9-25,69.5,56.6,46.8,54.6,49.5,45.4,98,79,49,29.95,29.88,6,0,6,0.00
2013-9-26,74.2,59.8,48.0,55.2,49.7,46.1,99,73,42,30.07,29.93,8,1,8,0.00
2013-9-27,74.8,60.5,48.8,58.2,53.6,48.0,99,80,50,30.16,30.07,8,0,8,0.00
2013-9-28,76.2,63.4,52.4,60.8,56.1,51.8,99,80,47,30.12,29.93,10,1,10,0.00
2013-9-29,62.5,59.7,58.0,61.6,57.2,53.8,98,92,83,29.94,29.87,8,1,8,0.11
2013-9-30,69.7,61.0,55.9,57.8,55.5,50.1,99,84,50,29.94,29.84,11,1,12,0.01
2013-10-1,69.9,61.4,52.6,63.1,58.5,51.6,98,90,77,29.94,29.85,13,2,14,0.00
2013-10-2,76.3,66.0,55.6,61.4,53.9,44.4,97,69,33,30.00,29.86,8,1,9,0.00
2013-10-3,76.2,65.4,54.3,68.1,60.5,48.3,98,84,73,29.98,29.84,11,1,12,0.00
2013-10-4,77.9,70.0,64.3,68.7,65.7,63.1,98,87,71,29.93,29.85,10,1,10,0.01
2013-10-5,72.1,67.2,63.6,69.0,65.6,62.8,99,95,87,29.95,29.77,7,0,7,0.33
2013-10-6,69.3,64.5,53.8,67.8,63.1,52.9,99,95,86,29.77,29.52,21,2,21,0.16
2013-10-7,58.4,51.3,43.7,53.3,47.0,41.5,98,86,64,30.05,29.59,15,3,15,0.00
2013-10-8,66.0,53.8,45.7,47.8,44.4,41.7,92,73,46,30.22,30.05,9,1,9,0.00
2013-10-9,69.9,54.7,43.6,54.7,46.9,42.8,99,78,48,30.25,30.15,8,0,8,0.00
2013-10-10,70.1,55.8,46.7,54.3,47.4,42.8,99,77,38,30.16,30.06,5,0,5,0.00
2013-10-11,70.6,55.7,43.9,50.8,45.9,42.5,97,73,40,30.09,30.00,5,0,5,0.00
2013-10-12,75.6,61.4,50.4,61.8,55.2,44.8,99,83,34,30.03,29.96,8,1,8,0.00
2013-10-13,66.5,58.9,47.8,59.5,47.2,36.7,98,69,36,30.26,30.00,9,1,9,0.00
2013-10-14,62.6,51.8,44.8,45.5,43.5,40.9,95,75,48,30.34,30.20,8,1,8,0.00
2013-10-15,64.4,53.4,42.5,60.2,51.3,41.3,99,93,78,30.21,29.76,10,1,11,0.05
2013-10-16,61.6,55.9,50.8,60.6,51.1,45.3,98,85,64,29.83,29.73,14,4,14,0.00
2013-10-17,52.2,49.4,46.3,48.9,47.1,44.3,96,92,87,29.82,29.68,10,2,10,0.20
2013-10-18,61.6,50.3,41.3,46.7,43.0,39.3,97,78,45,29.85,29.77,14,2,14,0.00
2013-10-19,46.9,43.0,38.9,42.3,40.4,37.3,96,91,81,29.83,29.67,13,2,13,0.21
2013-10-20,57.4,46.9,36.6,45.4,40.2,35.5,97,79,52,29.85,29.77,18,2,19,0.00
2013-10-21,54.3,49.1,40.0,48.0,43.2,34.1,94,80,67,29.79,29.72,17,3,18,0.09
2013-10-22,47.7,40.6,32.7,36.6,31.2,28.4,85,70,51,29.85,29.76,10,2,13,0.00
2013-10-23,45.9,38.2,31.0,34.7,30.9,23.3,97,77,43,29.87,29.75,10,1,10,0.00
2013-10-24,45.9,37.1,31.3,34.1,31.1,27.2,94,80,50,30.11,29.86,12,2,12,0.00
2013-10-25,44.9,37.3,30.8,35.7,31.1,28.1,96,80,56,30.27,30.05,12,3,12,0.00
2013-10-26,49.0,41.8,36.7,38.7,32.6,28.2,95,70,57,30.05,29.71,17,4,17,0.09
2013-10-27,51.4,41.0,33.5,36.0,33.0,31.1,94,75,51,30.01,29.92,12,2,13,0.00
2013-10-28,49.9,42.1,35.7,40.6,34.5,31.1,85,74,64,30.34,29.98,10,2,10,0.00
2013-10-29,48.6,41.9,37.3,37.6,33.6,29.4,83,73,57,30.38,30.19,7,1,7,0.00
2013-10-30,62.4,47.7,35.2,49.7,41.2,32.7,99,80,52,30.19,29.89,6,0,6,0.17
2013-10-31,61.6,58.5,50.9,60.8,57.6,49.8,99,97,95,29.91,29.08,22,4,24,1.07
2013-11-1,60.2,49.1,44.8,59.3,44.3,39.8,97,84,72,29.59,29.02,26,6,26,0.01
2013-11-2,45.9,42.7,34.7,44.1,40.7,32.1,97,93,83,30.04,29.57,11,2,11,0.22
2013-11-3,42.9,35.7,29.7,36.3,32.0,28.9,98,87,67,30.40,30.03,6,0,6,0.00
2013-11-4,47.9,39.5,29.6,36.9,31.9,27.5,96,76,47,30.43,30.26,9,1,10,0.00
2013-11-5,52.4,47.8,41.3,48.1,43.1,36.3,92,84,75,30.30,30.10,9,1,9,0.00
2013-11-6,55.4,51.3,42.4,52.4,47.0,38.3,95,85,68,30.11,29.72,20,4,20,0.17
2013-11-7,43.5,38.6,33.4,38.4,31.3,24.7,95,76,51,30.07,29.90,17,3,17,0.03
2013-11-8,43.5,35.2,30.4,32.7,28.6,25.5,95,78,51,30.23,30.05,9,2,10,0.00
2013-11-9,55.5,46.2,34.8,41.9,35.9,29.3,84,68,56,30.13,29.74,23,5,23,0.00
2013-11-10,47.2,42.1,35.4,40.0,31.5,28.7,86,66,55,30.20,29.83,20,4,20,0.00
2013-11-11,41.4,35.4,26.9,38.2,30.9,20.0,95,84,74,30.25,29.96,14,3,15,0.13
2013-11-12,33.1,27.3,22.4,21.7,18.8,16.0,84,71,52,30.50,30.25,16,3,16,0.00
2013-11-13,40.1,29.6,19.6,24.2,17.6,9.8,88,64,30,30.50,30.11,18,4,18,0.00
2013-11-14,49.4,38.5,28.1,27.5,22.5,17.7,70,53,41,30.12,29.93,12,5,19,0.00
2013-11-15,49.9,42.4,35.4,31.6,28.0,23.8,73,57,44,30.01,29.93,13,3,13,0.00
2013-11-16,55.9,45.4,34.0,52.8,41.3,31.0,92,86,72,30.05,29.74,18,3,18,0.00
2013-11-17,61.7,56.8,46.9,59.4,53.9,40.1,96,90,70,29.74,29.15,38,7,39,0.62
2013-11-18,46.9,39.5,33.8,41.4,31.0,23.4,82,71,64,30.06,29.37,33,8,33,0.00
2013-11-19,40.9,33.6,26.6,25.9,23.3,21.3,88,66,47,30.36,30.06,16,2,16,0.00
2013-11-20,46.1,35.1,24.7,33.4,27.0,22.2,95,74,41,30.40,30.19,12,2,15,0.00
2013-11-21,46.7,42.7,38.1,43.2,37.9,28.5,98,83,69,30.24,30.11,20,2,20,0.26
2013-11-22,44.5,38.7,27.4,44.0,36.6,24.4,98,92,81,30.30,30.06,12,2,19,0.06
2013-11-23,28.0,23.4,16.4,24.6,16.6,8.6,92,76,51,30.47,30.21,16,4,22,0.00
2013-11-24,23.9,17.7,13.3,14.4,10.2,8.2,85,73,52,30.56,30.39,16,3,18,0.00
2013-11-25,30.0,24.4,17.9,25.1,16.0,9.7,86,71,56,30.39,30.05,18,5,19,0.00
2013-11-26,33.2,30.5,28.2,28.3,26.7,24.3,91,86,80,30.07,29.88,12,2,12,0.00
2013-11-27,28.3,22.7,17.8,24.3,14.5,9.9,89,71,56,30.15,29.86,19,4,19,0.00
2013-11-28,27.1,21.7,16.2,20.9,16.1,11.0,90,79,65,30.39,30.15,10,1,10,0.00
2013-11-29,32.9,23.0,13.9,23.8,17.8,12.0,95,81,58,30.63,30.39,6,0,6,0.00
2013-11-30,43.7,33.3,24.7,29.5,25.9,21.1,86,75,56,30.52,30.05,13,2,13,0.00
2013-12-1,42.7,35.4,29.6,35.1,30.6,26.3,94,83,71,30.05,29.93,9,2,10,0.00
2013-12-2,37.3,32.6,27.6,31.3,25.9,21.6,92,77,55,29.94,29.83,7,1,8,0.00
2013-12-3,37.2,33.4,27.4,36.1,30.9,22.8,96,91,80,29.86,29.80,6,1,7,0.03
2013-12-4,53.7,45.4,37.1,51.3,43.5,36.0,97,93,88,29.85,29.56,9,2,11,0.03
2013-12-5,57.5,42.2,29.4,54.6,35.6,21.5,93,77,66,30.08,29.54,23,6,26,0.00
2013-12-6,29.4,25.2,18.9,22.4,17.6,12.9,78,72,68,30.36,30.05,11,3,11,0.00
2013-12-7,23.7,18.7,13.6,13.4,9.7,8.0,80,68,54,30.58,30.35,13,2,13,0.00
2013-12-8,28.1,18.7,10.9,26.7,14.1,7.2,95,82,67,30.57,29.96,11,2,14,0.00
2013-12-9,28.7,25.5,19.0,27.7,21.2,11.6,96,84,70,30.05,29.83,22,6,22,0.00
2013-12-10,20.9,17.0,10.3,16.8,9.0,0.5,87,71,47,30.15,29.91,24,5,24,0.00
2013-12-11,22.1,16.7,6.2,16.8,11.0,1.0,88,78,69,30.42,30.14,11,4,13,0.00
2013-12-12,19.8,12.1,2.7,14.3,5.2,-1.0,88,74,45,30.42,30.15,20,4,20,0.00
2013-12-13,27.4,23.3,19.6,21.1,18.0,14.3,84,80,73,30.25,30.11,15,3,15,0.00
2013-12-14,20.7,18.0,15.8,19.1,15.4,11.0,94,90,72,30.24,29.77,14,4,15,0.00
2013-12-15,24.2,18.8,14.1,22.1,15.4,8.9,94,87,73,29.99,29.76,24,4,24,0.00
2013-12-16,22.9,14.5,8.0,13.1,9.3,5.2,91,80,58,30.15,29.97,9,2,9,0.00
2013-12-17,26.2,21.3,13.9,23.6,18.6,12.0,94,90,84,29.97,29.84,14,3,14,0.00
2013-12-18,29.7,25.4,20.6,24.4,21.0,15.4,94,84,70,30.07,29.86,16,4,17,0.00
2013-12-19,40.0,32.6,24.4,33.8,27.4,17.0,95,81,71,29.95,29.82,10,1,10,0.13
2013-12-20,37.1,34.1,32.5,36.6,33.5,31.6,98,98,95,29.86,29.67,5,1,5,0.40
2013-12-21,33.9,32.9,32.1,33.3,32.2,31.1,98,97,96,29.81,29.60,11,2,11,0.70
2013-12-22,35.4,33.2,32.0,33.5,32.2,30.9,98,96,91,29.90,29.48,7,2,11,0.29
2013-12-23,32.0,27.4,20.1,31.0,23.3,13.4,96,85,71,30.25,29.90,13,3,14,0.00
2013-12-24,20.0,13.3,7.2,13.4,8.0,4.6,93,79,64,30.51,30.24,12,3,14,0.00
2013-12-25,23.6,18.0,8.1,21.8,15.1,5.1,93,88,80,30.47,30.08,16,2,16,0.00
2013-12-26,26.6,24.6,23.4,24.5,20.5,15.9,94,84,71,30.24,29.99,17,3,18,0.00
2013-12-27,38.2,32.0,23.4,31.9,28.2,20.9,95,86,75,30.27,30.01,14,3,15,0.04
2013-12-28,46.8,39.8,33.6,36.6,33.0,29.6,86,77,64,30.06,29.83,15,4,15,0.00
2013-12-29,41.4,33.6,20.2,32.7,28.2,15.2,94,81,69,29.94,29.62,15,3,15,0.00
2013-12-30,20.1,17.5,14.3,15.5,9.1,4.1,82,69,60,30.22,29.94,14,2,14,0.00
2013-12-31,19.2,15.7,13.9,14.7,10.3,5.8,89,79,66,30.29,30.01,13,4,18,0.00
2014-1-1,14.7,12.1,10.1,12.0,8.8,5.2,91,86,78,30.37,30.20,10,2,10,0.00
2014-1-2,14.0,10.6,1.5,11.9,7.2,-4.1,91,86,75,30.25,30.05,19,5,19,0.00